createdAt,value
2023-06-24T00:07:50.530Z,18.10
2023-06-24T00:17:51.040Z,18.05
2023-06-24T00:27:51.597Z,18.03
2023-06-24T00:37:52.280Z,17.96
2023-06-24T00:47:52.885Z,17.92
2023-06-24T00:57:53.409Z,17.87
2023-06-24T01:07:53.983Z,17.77
2023-06-24T01:17:54.582Z,17.71
2023-06-24T01:27:55.329Z,17.58
2023-06-24T01:37:55.852Z,17.48
2023-06-24T01:47:56.444Z,17.41
2023-06-24T01:57:56.996Z,17.36
2023-06-24T02:07:57.568Z,17.28
2023-06-24T02:17:58.372Z,17.19
2023-06-24T02:27:58.958Z,17.14
2023-06-24T02:37:59.438Z,17.03
2023-06-24T02:47:59.950Z,16.94
2023-06-24T02:58:00.443Z,16.82
2023-06-24T03:08:00.949Z,16.79
2023-06-24T03:18:01.503Z,16.75
2023-06-24T03:28:02.034Z,16.70
2023-06-24T03:38:02.497Z,16.78
2023-06-24T03:48:03.064Z,16.76
2023-06-24T03:58:03.588Z,16.75
2023-06-24T04:08:04.113Z,16.89
2023-06-24T04:18:04.600Z,16.82
2023-06-24T04:28:05.113Z,16.78
2023-06-24T04:38:05.627Z,16.82
2023-06-24T04:48:06.136Z,17.62
2023-06-24T04:58:06.616Z,17.93
2023-06-24T05:08:07.131Z,19.23
2023-06-24T05:18:14.613Z,20.03
2023-06-24T05:28:08.099Z,20.52
2023-06-24T05:38:08.569Z,20.55
2023-06-24T05:48:09.088Z,20.55
2023-06-24T05:58:09.567Z,20.79
2023-06-24T06:08:10.121Z,20.16
2023-06-24T06:18:10.621Z,19.73
2023-06-24T06:28:11.132Z,19.69
2023-06-24T06:38:11.583Z,19.87
2023-06-24T06:48:12.096Z,19.88
2023-06-24T06:58:12.571Z,20.14
2023-06-24T07:08:13.086Z,20.16
2023-06-24T07:18:13.571Z,20.13
2023-06-24T07:28:14.067Z,20.10
2023-06-24T07:38:14.700Z,19.96
2023-06-24T07:48:15.217Z,20.28
2023-06-24T07:58:15.680Z,20.51
2023-06-24T08:08:16.211Z,20.57
2023-06-24T08:18:16.690Z,20.69
2023-06-24T08:28:17.205Z,20.70
2023-06-24T08:38:17.693Z,20.64
2023-06-24T08:48:18.375Z,20.80
2023-06-24T08:58:18.895Z,20.82
2023-06-24T09:08:19.407Z,20.89
2023-06-24T09:18:19.880Z,21.07
2023-06-24T09:28:20.388Z,20.92
2023-06-24T09:38:20.874Z,21.04
2023-06-24T09:48:21.404Z,21.16
2023-06-24T09:58:21.881Z,21.29
2023-06-24T10:08:22.400Z,21.44
2023-06-24T10:18:22.914Z,21.56
2023-06-24T10:28:23.434Z,21.83
2023-06-24T10:38:23.917Z,22.15
2023-06-24T10:48:24.456Z,22.30
2023-06-24T10:58:24.921Z,22.46
2023-06-24T11:08:25.503Z,22.61
2023-06-24T11:18:32.973Z,22.73
2023-06-24T11:28:26.501Z,22.98
2023-06-24T11:38:26.985Z,22.90
2023-06-24T11:48:27.514Z,22.91
2023-06-24T11:58:28.021Z,23.12
2023-06-24T12:08:33.482Z,23.32
2023-06-24T12:18:30.392Z,23.55
2023-06-24T12:28:29.908Z,23.65
2023-06-24T12:38:30.413Z,23.94
2023-06-24T12:48:30.932Z,23.95
2023-06-24T12:58:31.434Z,24.15
2023-06-24T13:08:31.940Z,24.15
2023-06-24T13:18:32.450Z,24.00
2023-06-24T13:28:33.018Z,24.25
2023-06-24T13:38:33.490Z,24.53
2023-06-24T13:48:33.995Z,24.46
2023-06-24T13:58:34.482Z,24.60
2023-06-24T14:08:35.080Z,24.58
2023-06-24T14:18:35.608Z,24.80
2023-06-24T14:28:36.169Z,24.80
2023-06-24T14:38:36.648Z,24.80
2023-06-24T14:48:37.251Z,24.83
2023-06-24T14:58:37.829Z,24.81
2023-06-24T15:08:38.374Z,24.95
2023-06-24T15:18:38.887Z,25.05
2023-06-24T15:28:39.377Z,25.28
2023-06-24T15:38:39.868Z,25.52
2023-06-24T15:48:40.403Z,25.30
2023-06-24T15:58:40.886Z,25.13
2023-06-24T16:08:41.419Z,25.14
2023-06-24T16:18:41.925Z,25.30
2023-06-24T16:28:42.437Z,25.27
2023-06-24T16:38:42.940Z,25.23
2023-06-24T16:48:43.501Z,25.14
2023-06-24T16:58:44.022Z,25.14
2023-06-24T17:08:44.651Z,25.02
2023-06-24T17:18:52.148Z,24.93
2023-06-24T17:28:45.673Z,24.85
2023-06-24T17:38:46.126Z,24.84
2023-06-24T17:48:46.655Z,24.61
2023-06-24T17:58:47.131Z,24.58
2023-06-24T18:08:47.659Z,24.96
2023-06-24T18:18:48.123Z,24.93
2023-06-24T18:28:48.658Z,24.34
2023-06-24T18:38:49.126Z,23.95
2023-06-24T18:48:49.652Z,23.70
2023-06-24T18:58:50.107Z,23.43
2023-06-24T19:08:50.621Z,23.22
2023-06-24T19:18:51.082Z,22.97
2023-06-24T19:28:51.623Z,22.70
2023-06-24T19:38:52.088Z,22.47
2023-06-24T19:48:52.615Z,22.27
2023-06-24T19:58:53.078Z,22.09
2023-06-24T20:08:53.612Z,21.96
2023-06-24T20:18:54.161Z,21.92
2023-06-24T20:28:54.739Z,21.82
2023-06-24T20:38:55.286Z,21.65
2023-06-24T20:48:55.872Z,21.54
2023-06-24T20:58:56.374Z,21.38
2023-06-24T21:08:56.962Z,21.28
2023-06-24T21:18:57.503Z,21.24
2023-06-24T21:28:58.088Z,21.10
2023-06-24T21:38:58.613Z,20.98
2023-06-24T21:48:59.200Z,20.87
2023-06-24T21:58:59.730Z,20.73
2023-06-24T22:09:00.301Z,20.62
2023-06-24T22:19:00.840Z,20.57
2023-06-24T22:29:01.393Z,20.42
2023-06-24T22:39:01.920Z,20.29
2023-06-24T22:49:02.494Z,20.20
2023-06-24T22:59:03.017Z,20.16
2023-06-24T23:09:03.591Z,20.11
2023-06-24T23:19:11.126Z,20.01
2023-06-24T23:29:04.699Z,19.87
2023-06-24T23:39:05.252Z,19.77
2023-06-24T23:49:05.670Z,19.73
2023-06-24T23:59:06.207Z,19.73
